Bow Harmony — LAUC7 — position and weather

sailwx.info

Track history (hours):
 
Tides and Currents Weather Stations Pressure Air Temp Water Temp Dewpoint Dewpoint Depression Visibility Wind Speed Wind Dir Waves Ship Positions

Bow Harmony

Last reported at 2017-Aug-23 06:59 UTC. Time now 2017-Sep-19 20:38 UTC.
Position N 29°21' W 094°46'.
Warning: this ship's position is 27 days out of date.

Length 170 m; draft 9.3 m.

Type: Ship. MMSI: 257441000.

Date/timePositionNaut miles runAvg speedWind from/ knotsBaromVisibWave heightAir tempDewpointWater temp
2017-Aug-23 06:59N 29°21' W 094°46'1012.0
2017-Aug-23 06:07N 29°30' W 094°52'111.6
2017-Aug-23 06:00N 29°31' W 094°53'611.3
2017-Aug-23 05:31N 29°35' W 094°56'510.5
2017-Aug-23 05:01N 29°40' W 094°59'4 8.4
2017-Aug-23 04:31N 29°44' W 095°01'4 7.8
2017-Aug-23 04:00N 29°46' W 095°05'1 0.0
2017-Aug-22 02:16N 29°45' W 095°06'1 2.5
2017-Aug-22 02:00N 29°46' W 095°05'3 6.4
2017-Aug-22 01:30N 29°44' W 095°02'4 7.3
2017-Aug-22 01:00N 29°41' W 094°59'510.1
2017-Aug-22 00:30N 29°37' W 094°57'510.8
2017-Aug-22 00:00N 29°32' W 094°54'510.8
2017-Aug-21 23:30N 29°27' W 094°51'610.6
2017-Aug-21 22:59N 29°22' W 094°48'2 0.1
2017-Aug-20 01:53N 29°21' W 094°46'1111.9
2017-Aug-20 00:56N 29°30' W 094°53'510.7
2017-Aug-20 00:30N 29°34' W 094°56'510.2
2017-Aug-20 00:00N 29°39' W 094°58'4 8.9
2017-Aug-19 23:30N 29°42' W 095°01'3 6.3
2017-Aug-19 23:00N 29°45' W 095°04'2 3.6
2017-Aug-19 22:30N 29°45' W 095°06'0 0.0
2017-Aug-18 13:51N 29°45' W 095°06'0 0.6
2017-Aug-18 13:30N 29°45' W 095°06'2 3.0
2017-Aug-18 13:00N 29°46' W 095°05'3 6.1
2017-Aug-18 12:30N 29°44' W 095°02'3 6.3
2017-Aug-18 12:00N 29°41' W 094°59'1 1.0
2017-Aug-18 11:29N 29°41' W 094°59'0 0.0
2017-Aug-18 10:56N 29°41' W 094°59'0 0.0
2017-Aug-18 10:29N 29°41' W 094°59'0 0.0
2017-Aug-18 09:59N 29°41' W 094°59'0 0.0
2017-Aug-18 09:23N 29°41' W 094°59'0 0.0
2017-Aug-18 08:59N 29°41' W 094°59'0 0.0
2017-Aug-18 08:29N 29°41' W 094°59'0 0.0
2017-Aug-18 07:56N 29°41' W 094°59'0 0.0
2017-Aug-18 07:29N 29°41' W 094°59'0 0.0
2017-Aug-18 06:59N 29°41' W 094°59'0 0.0
2017-Aug-18 06:23N 29°41' W 094°59'0 0.0
2017-Aug-18 05:59N 29°41' W 094°59'0 0.0
2017-Aug-18 05:29N 29°41' W 094°59'0 0.0
2017-Aug-18 04:59N 29°41' W 094°59'0 0.0
2017-Aug-18 04:29N 29°41' W 094°59'0 0.0
2017-Aug-18 03:53N 29°41' W 094°59'0 0.0
2017-Aug-18 03:29N 29°41' W 094°59'0 0.0
2017-Aug-18 02:59N 29°41' W 094°59'0 0.0
2017-Aug-18 02:26N 29°41' W 094°59'0 0.0
2017-Aug-18 01:50N 29°41' W 094°59'0 0.0
2017-Aug-18 01:29N 29°41' W 094°59'0 0.0
2017-Aug-18 00:59N 29°41' W 094°59'0 0.0
2017-Aug-18 00:30N 29°41' W 094°59'0 0.0
2017-Aug-17 09:21N 29°41' W 094°59'0 0.1
2017-Aug-17 09:01N 29°41' W 094°59'2 2.9
2017-Aug-17 08:29N 29°42' W 095°00'3 4.8
2017-Aug-17 07:56N 29°44' W 095°03'3 5.8
2017-Aug-17 07:30N 29°46' W 095°05'3 0.2
2017-Aug-16 13:09N 29°44' W 095°08'0 0.0
2017-Aug-16 13:00N 29°44' W 095°08'2 3.1
2017-Aug-16 12:31N 29°45' W 095°06'3 5.8
2017-Aug-16 12:01N 29°44' W 095°03'4 7.5
2017-Aug-16 11:30N 29°42' W 094°59'611.3
2017-Aug-16 11:01N 29°36' W 094°57'612.0
2017-Aug-16 10:31N 29°31' W 094°53'612.5
2017-Aug-16 10:00N 29°26' W 094°50'  
Track history (hours):
 
Tides and Currents Weather Stations Pressure Air Temp Water Temp Dewpoint Dewpoint Depression Visibility Wind Speed Wind Dir Waves Ship Positions

Bow Harmony

Last reported at 2017-Aug-23 06:59 UTC. Time now 2017-Sep-19 20:38 UTC.
Position N 29°21' W 094°46'.
Warning: this ship's position is 27 days out of date.

Length 170 m; draft 9.3 m.

Type: Ship. MMSI: 257441000.

Date/timePositionNaut miles runAvg speedWind from/ knotsBaromVisibWave heightAir tempDewpointWater temp
2017-Aug-23 06:59N 29°21' W 094°46'1012.0
2017-Aug-23 06:07N 29°30' W 094°52'111.6
2017-Aug-23 06:00N 29°31' W 094°53'611.3
2017-Aug-23 05:31N 29°35' W 094°56'510.5
2017-Aug-23 05:01N 29°40' W 094°59'4 8.4
2017-Aug-23 04:31N 29°44' W 095°01'4 7.8
2017-Aug-23 04:00N 29°46' W 095°05'1 0.0
2017-Aug-22 02:16N 29°45' W 095°06'1 2.5
2017-Aug-22 02:00N 29°46' W 095°05'3 6.4
2017-Aug-22 01:30N 29°44' W 095°02'4 7.3
2017-Aug-22 01:00N 29°41' W 094°59'510.1
2017-Aug-22 00:30N 29°37' W 094°57'510.8
2017-Aug-22 00:00N 29°32' W 094°54'510.8
2017-Aug-21 23:30N 29°27' W 094°51'610.6
2017-Aug-21 22:59N 29°22' W 094°48'2 0.1
2017-Aug-20 01:53N 29°21' W 094°46'1111.9
2017-Aug-20 00:56N 29°30' W 094°53'510.7
2017-Aug-20 00:30N 29°34' W 094°56'510.2
2017-Aug-20 00:00N 29°39' W 094°58'4 8.9
2017-Aug-19 23:30N 29°42' W 095°01'3 6.3
2017-Aug-19 23:00N 29°45' W 095°04'2 3.6
2017-Aug-19 22:30N 29°45' W 095°06'0 0.0
2017-Aug-18 13:51N 29°45' W 095°06'0 0.6
2017-Aug-18 13:30N 29°45' W 095°06'2 3.0
2017-Aug-18 13:00N 29°46' W 095°05'3 6.1
2017-Aug-18 12:30N 29°44' W 095°02'3 6.3
2017-Aug-18 12:00N 29°41' W 094°59'1 1.0
2017-Aug-18 11:29N 29°41' W 094°59'0 0.0
2017-Aug-18 10:56N 29°41' W 094°59'0 0.0
2017-Aug-18 10:29N 29°41' W 094°59'0 0.0
2017-Aug-18 09:59N 29°41' W 094°59'0 0.0
2017-Aug-18 09:23N 29°41' W 094°59'0 0.0
2017-Aug-18 08:59N 29°41' W 094°59'0 0.0
2017-Aug-18 08:29N 29°41' W 094°59'0 0.0
2017-Aug-18 07:56N 29°41' W 094°59'0 0.0
2017-Aug-18 07:29N 29°41' W 094°59'0 0.0
2017-Aug-18 06:59N 29°41' W 094°59'0 0.0
2017-Aug-18 06:23N 29°41' W 094°59'0 0.0
2017-Aug-18 05:59N 29°41' W 094°59'0 0.0
2017-Aug-18 05:29N 29°41' W 094°59'0 0.0
2017-Aug-18 04:59N 29°41' W 094°59'0 0.0
2017-Aug-18 04:29N 29°41' W 094°59'0 0.0
2017-Aug-18 03:53N 29°41' W 094°59'0 0.0
2017-Aug-18 03:29N 29°41' W 094°59'0 0.0
2017-Aug-18 02:59N 29°41' W 094°59'0 0.0
2017-Aug-18 02:26N 29°41' W 094°59'0 0.0
2017-Aug-18 01:50N 29°41' W 094°59'0 0.0
2017-Aug-18 01:29N 29°41' W 094°59'0 0.0
2017-Aug-18 00:59N 29°41' W 094°59'0 0.0
2017-Aug-18 00:30N 29°41' W 094°59'0 0.0
2017-Aug-17 09:21N 29°41' W 094°59'0 0.1
2017-Aug-17 09:01N 29°41' W 094°59'2 2.9
2017-Aug-17 08:29N 29°42' W 095°00'3 4.8
2017-Aug-17 07:56N 29°44' W 095°03'3 5.8
2017-Aug-17 07:30N 29°46' W 095°05'3 0.2
2017-Aug-16 13:09N 29°44' W 095°08'0 0.0
2017-Aug-16 13:00N 29°44' W 095°08'2 3.1
2017-Aug-16 12:31N 29°45' W 095°06'3 5.8
2017-Aug-16 12:01N 29°44' W 095°03'4 7.5
2017-Aug-16 11:30N 29°42' W 094°59'611.3
2017-Aug-16 11:01N 29°36' W 094°57'612.0
2017-Aug-16 10:31N 29°31' W 094°53'612.5
2017-Aug-16 10:00N 29°26' W 094°50'  

Dump ship's entire track history